Data for 09/27/2009

Time Sea-Level Adjusted Pressure Absolute Pressure Temperature Relative Humidity Dew Point   
(mb) (inHg) (mb) (inHg) (C) (F) (%) (C) (F)
00:05 1017 30.03 846 24.98 16.7 62.1 24 -4 24.8
00:10 1017 30.03 846 24.98 16.7 62 24 -3.9 25.1
00:15 1017 30.03 847 25.01 16.5 61.7 25 -3.3 26
00:20 1017 30.03 846 24.98 16.4 61.5 25 -3.4 25.9
00:25 1017 30.03 847 25.01 16.2 61.1 25 -3.6 25.4
00:30 1017 30.03 847 25.01 16.1 60.9 26 -3.2 26.3
00:35 1017 30.03 847 25.01 16 60.8 28 -2.6 27.3
00:40 1018 30.06 847 25.01 15.7 60.3 28 -2.6 27.3
00:45 1018 30.06 847 25.01 15.5 59.8 28 -2.9 26.7
00:50 1018 30.06 847 25.01 15.4 59.6 28 -3.2 26.3
00:55 1018 30.06 847 25.01 15.5 59.8 28 -2.7 27.1
01:00 1018 30.06 847 25.01 15.4 59.7 28 -3.1 26.4
01:05 1018 30.06 847 25.01 15.3 59.6 27 -3.6 25.6
01:10 1018 30.06 847 25.01 15.6 60 25 -4.3 24.2
01:15 1018 30.06 847 25.01 15.9 60.7 24 -4.3 24.3
01:20 1018 30.06 847 25.01 16 60.9 26 -3.5 25.7
01:25 1018 30.06 847 25.01 15.8 60.4 27 -3.3 26
01:30 1018 30.06 847 25.01 15.4 59.7 28 -3 26.5
01:35 1018 30.06 847 25.01 15.1 59.2 27 -3.4 25.8
01:40 1018 30.06 847 25.01 15 59 27 -4 24.7
01:45 1018 30.06 847 25.01 14.8 58.6 28 -3.4 25.8
01:50 1018 30.06 847 25.01 14.6 58.2 29 -3.1 26.3
01:55 1018 30.06 847 25.01 14.5 58.2 30 -2.7 27.2
02:00 1018 30.06 847 25.01 14.3 57.7 30 -3.1 26.4
02:05 1018 30.06 847 25.01 14.1 57.3 30 -3.1 26.5
02:10 1018 30.06 847 25.01 14.1 57.4 31 -2.8 27
02:15 1018 30.06 847 25.01 14.1 57.4 32 -2.3 27.9
02:20 1018 30.06 848 25.04 14.3 57.8 30 -3.1 26.4
02:25 1018 30.06 848 25.04 14.8 58.6 29 -3.2 26.2
02:30 1019 30.09 848 25.04 15.1 59.3 28 -3.1 26.5
02:35 1019 30.09 848 25.04 15.2 59.4 28 -3.1 26.4
02:40 1019 30.09 848 25.04 15.1 59.1 28 -3.2 26.2
02:45 1019 30.09 848 25.04 14.8 58.6 28 -3.3 26.1
02:50 1019 30.09 848 25.04 14.6 58.3 29 -3.1 26.3
02:55 1019 30.09 848 25.04 14.4 58 29 -3.1 26.3
03:00 1019 30.09 848 25.04 14.5 58 29 -3.4 25.9
03:05 1019 30.09 848 25.04 14.5 58 29 -3.3 26
03:10 1019 30.09 848 25.04 14.6 58.2 29 -3.2 26.2
03:15 1019 30.09 848 25.04 14.7 58.5 29 -3.1 26.5
03:20 1019 30.09 848 25.04 14.7 58.5 29 -3 26.7
03:25 1019 30.09 848 25.04 14.5 58.2 30 -2.8 27
03:30 1019 30.09 848 25.04 14.4 57.8 31 -2.4 27.7
03:35 1019 30.09 848 25.04 14.1 57.5 32 -2.3 27.8
03:40 1019 30.09 848 25.04 14 57.1 32 -2.3 27.8
03:45 1019 30.09 848 25.04 13.8 56.9 33 -2.2 28.1
03:50 1019 30.09 849 25.07 13.6 56.5 34 -2 28.3
03:55 1020 30.12 849 25.07 13.4 56.2 34 -1.9 28.6
04:00 1020 30.12 849 25.07 13 55.4 35 -2.1 28.3
04:05 1020 30.12 849 25.07 12.7 54.9 35 -2.2 28.1
04:10 1020 30.12 849 25.07 12.9 55.3 35 -2 28.3
04:15 1020 30.12 849 25.07 12.9 55.2 34 -2.4 27.6
04:20 1020 30.12 849 25.07 13.1 55.6 34 -2.3 27.8
04:25 1020 30.12 849 25.07 13.2 55.7 34 -2.2 28.1
04:30 1020 30.12 849 25.07 13 55.3 35 -1.9 28.5
04:35 1020 30.12 849 25.07 12.9 55.3 35 -2.1 28.2
04:40 1020 30.12 849 25.07 12.9 55.3 35 -2 28.4
04:45 1020 30.12 849 25.07 12.7 54.8 36 -2.1 28.3
04:50 1020 30.12 849 25.07 12.4 54.3 36 -2.2 28.1
04:55 1020 30.12 850 25.1 12 53.6 37 -2.3 27.9
05:00 1020 30.12 850 25.1 11.9 53.4 36 -2.6 27.3
05:05 1021 30.15 850 25.1 11.9 53.4 36 -2.8 27
05:10 1021 30.15 850 25.1 11.8 53.2 35 -3 26.6
05:15 1021 30.15 850 25.1 11.7 53 37 -2.6 27.3
05:20 1021 30.15 850 25.1 11.4 52.5 38 -2.5 27.6
05:25 1021 30.15 850 25.1 11.2 52.1 39 -2.3 27.9
05:30 1021 30.15 850 25.1 11.1 51.9 39 -2.3 27.8
05:35 1021 30.15 850 25.1 10.9 51.7 40 -2.2 28
05:40 1021 30.15 850 25.1 10.8 51.5 40 -2.3 27.8
05:45 1021 30.15 850 25.1 10.9 51.6 40 -2.2 28.1
05:50 1021 30.15 850 25.1 10.7 51.3 42 -1.7 29
05:55 1021 30.15 850 25.1 10.1 50.1 45 -1.2 29.8
06:00 1021 30.15 851 25.13 9.5 49.1 46 -1.6 29.1
06:05 1021 30.15 851 25.13 9.4 49 47 -1.2 29.8
06:10 1021 30.15 851 25.13 9 48.2 50 -0.7 30.7
06:15 1021 30.15 851 25.13 8.1 46.6 52 -1.2 29.9
06:20 1022 30.18 851 25.13 8.3 47 50 -1.4 29.5
06:25 1022 30.18 851 25.13 8.6 47.5 50 -1.1 30
06:30 1022 30.18 851 25.13 8.5 47.2 51 -1 30.2
06:35 1022 30.18 851 25.13 8.3 47 52 -0.9 30.4
06:40 1022 30.18 851 25.13 8 46.5 54 -0.6 30.9
06:45 1022 30.18 851 25.13 7.8 46 55 -0.6 31
06:50 1022 30.18 852 25.16 7.5 45.5 58 -0.2 31.6
06:55 1022 30.18 852 25.16 7 44.6 61 0.1 32.2
07:00 1023 30.21 852 25.16 6.7 44 63 0.2 32.3
07:05 1023 30.21 852 25.16 6.6 43.8 64 0.1 32.3
07:10 1023 30.21 852 25.16 6.4 43.6 65 0.3 32.5
07:15 1023 30.21 852 25.16 6.3 43.4 65 0.2 32.4
07:20 1023 30.21 852 25.16 6.1 43.1 66 0.4 32.7
07:25 1023 30.21 852 25.16 6.1 42.9 66 0.2 32.4
07:30 1023 30.21 852 25.16 6.3 43.3 66 0.3 32.6
07:35 1023 30.21 852 25.16 6.1 43.1 66 0.3 32.6
07:40 1023 30.21 852 25.16 5.8 42.4 68 0.3 32.5
07:45 1023 30.21 852 25.16 6 42.7 66 0.1 32.1
07:50 1023 30.21 853 25.19 6.4 43.5 65 0.2 32.4
07:55 1023 30.21 853 25.19 6.7 44.1 63 0.2 32.3
08:00 1024 30.24 853 25.19 6.9 44.3 62 0.1 32.2
08:05 1024 30.24 853 25.19 7.3 45.1 60 0.1 32.2
08:10 1024 30.24 853 25.19 7 44.5 63 0.4 32.7
08:15 1024 30.24 853 25.19 6.7 44.1 63 0.1 32.2
08:20 1024 30.24 853 25.19 7.1 44.8 60 -0 31.9
08:25 1024 30.24 853 25.19 7.7 45.9 58 0.1 32.1
08:30 1024 30.24 853 25.19 8.2 46.7 58 0.4 32.7
08:35 1024 30.24 853 25.19 8.5 47.3 57 0.4 32.7
08:40 1024 30.24 853 25.19 8.7 47.7 56 0.5 32.9
08:45 1024 30.24 853 25.19 9 48.2 56 0.8 33.4
08:50 1024 30.24 853 25.19 8.7 47.6 58 1 33.8
08:55 1024 30.24 853 25.19 7.7 45.9 61 0.6 33.1
09:00 1024 30.24 853 25.19 8.4 47.2 58 0.7 33.2
09:05 1024 30.24 853 25.19 8.5 47.2 59 0.9 33.7
09:10 1024 30.24 853 25.19 9 48.2 56 0.7 33.3
09:15 1024 30.24 853 25.19 9.5 49 55 0.9 33.6
09:20 1024 30.24 853 25.19 9.5 49.2 55 0.9 33.6
09:25 1024 30.24 853 25.19 9.6 49.3 54 0.8 33.5
09:30 1024 30.24 853 25.19 9.5 49.1 55 0.9 33.6
09:35 1024 30.24 853 25.19 9.7 49.4 54 0.8 33.5
09:40 1024 30.24 853 25.19 9.6 49.3 54 0.7 33.3
09:45 1024 30.24 853 25.19 10.3 50.6 51 0.6 33
09:50 1024 30.24 853 25.19 10.6 51 51 0.9 33.7
09:55 1024 30.24 853 25.19 10.4 50.7 50 0.6 33
10:00 1024 30.24 853 25.19 10.6 51 52 1.1 34
10:05 1024 30.24 853 25.19 10.4 50.6 52 0.9 33.6
10:10 1024 30.24 853 25.19 10.8 51.4 49 0.6 33.1
10:15 1024 30.24 853 25.19 11 51.9 50 1.1 34
10:20 1024 30.24 853 25.19 10.8 51.5 49 0.7 33.3
10:25 1024 30.24 853 25.19 11.3 52.3 48 0.9 33.5
10:30 1024 30.24 853 25.19 11.2 52.2 49 1 33.8
10:35 1024 30.24 853 25.19 11.4 52.6 47 0.4 32.8
10:40 1024 30.24 853 25.19 11.5 52.8 48 1 33.8
10:45 1024 30.24 853 25.19 11.5 52.6 47 0.6 33
10:50 1024 30.24 853 25.19 11.5 52.8 47 0.5 33
10:55 1024 30.24 853 25.19 10.4 50.8 52 1.1 33.9
11:00 1024 30.24 853 25.19 10.9 51.5 49 0.6 33
11:05 1024 30.24 853 25.19 11.6 52.8 46 0.3 32.5
11:10 1024 30.24 853 25.19 11.9 53.5 45 0.5 32.9
11:15 1024 30.24 853 25.19 11.4 52.5 47 0.7 33.2
11:20 1024 30.24 853 25.19 12.3 54.1 44 0.4 32.6
11:25 1024 30.24 853 25.19 12.5 54.5 46 1.2 34.1
11:30 1024 30.24 853 25.19 12.4 54.3 42 -0.2 31.6
11:35 1024 30.24 853 25.19 12.7 54.9 40 -0.5 31.1
11:40 1024 30.24 853 25.19 12.6 54.7 42 0 32
11:45 1024 30.24 853 25.19 12.5 54.5 42 -0.2 31.7
11:50 1024 30.24 853 25.19 13.5 56.2 40 0.2 32.3
11:55 1024 30.24 853 25.19 13.5 56.3 37 -0.7 30.7
12:00 1024 30.24 853 25.19 13.2 55.7 39 -0.5 31
12:05 1024 30.24 853 25.19 13.5 56.3 39 -0.1 31.8
12:10 1024 30.24 853 25.19 13.3 55.9 38 -0.8 30.6
12:15 1024 30.24 853 25.19 13.4 56.1 38 -0.4 31.3
12:20 1024 30.24 853 25.19 14 57.2 37 -0.4 31.3
12:25 1024 30.24 853 25.19 14 57.1 36 -1 30.3
12:30 1024 30.24 853 25.19 14.4 57.9 34 -1.1 30.1
12:35 1024 30.24 853 25.19 14.5 58.1 34 -1.3 29.7
12:40 1024 30.24 853 25.19 14.2 57.6 36 -0.5 31.1
12:45 1024 30.24 853 25.19 14.3 57.7 35 -0.9 30.4
12:50 1024 30.24 853 25.19 14.7 58.5 34 -0.9 30.3
12:55 1024 30.24 853 25.19 15.5 59.8 32 -1.2 29.9
13:00 1024 30.24 853 25.19 15.4 59.7 33 -0.8 30.6
13:05 1024 30.24 853 25.19 15.3 59.5 33 -0.9 30.4
13:10 1024 30.24 853 25.19 15.4 59.7 33 -0.9 30.4
13:15 1024 30.24 853 25.19 14.6 58.2 35 -0.5 31.1
13:20 1024 30.24 853 25.19 14 57.2 35 -1.1 30
13:25 1024 30.24 853 25.19 15 58.9 32 -1.6 29.2
13:30 1024 30.24 853 25.19 15.8 60.5 30 -1.5 29.2
13:35 1024 30.24 853 25.19 16.1 60.9 29 -1.7 29
13:40 1024 30.24 853 25.19 16.3 61.4 30 -1.3 29.7
13:45 1023 30.21 853 25.19 16.7 62.1 29 -1.5 29.3
13:50 1023 30.21 853 25.19 16.9 62.4 29 -1.3 29.7
13:55 1023 30.21 853 25.19 16.7 62 28 -1.6 29.1
14:00 1023 30.21 853 25.19 16.6 61.9 29 -1.4 29.5
14:05 1023 30.21 853 25.19 16.7 62.1 29 -1.1 30.1
14:10 1023 30.21 853 25.19 17 62.6 28 -1.5 29.3
14:15 1023 30.21 852 25.16 16.9 62.5 28 -1.6 29.1
14:20 1023 30.21 852 25.16 16.7 62.1 28 -1.6 29.1
14:25 1023 30.21 852 25.16 16.7 62.1 27 -2.3 27.8
14:30 1023 30.21 852 25.16 17.1 62.8 27 -2 28.5
14:35 1023 30.21 852 25.16 17.3 63.2 25 -2.8 26.9
14:40 1023 30.21 852 25.16 17.8 64 26 -1.8 28.8
14:45 1023 30.21 852 25.16 17.9 64.1 24 -2.7 27.1
14:50 1023 30.21 852 25.16 18 64.4 23 -3.1 26.3
14:55 1023 30.21 852 25.16 17.9 64.3 25 -2.3 27.9
15:00 1023 30.21 852 25.16 17.9 64.3 24 -3.1 26.5
15:05 1023 30.21 852 25.16 17.9 64.2 24 -3.1 26.4
15:10 1023 30.21 852 25.16 18.3 64.9 24 -2.7 27.1
15:15 1023 30.21 852 25.16 18.8 65.8 22 -3 26.7
15:20 1023 30.21 852 25.16 17.5 63.5 23 -3.9 25
15:25 1023 30.21 852 25.16 17.4 63.4 21 -4.9 23.2
15:30 1023 30.21 852 25.16 18.1 64.6 21 -4.7 23.6
15:35 1023 30.21 852 25.16 18.2 64.8 20 -4.7 23.5
15:40 1023 30.21 852 25.16 18.7 65.7 21 -4 24.9
15:45 1023 30.21 852 25.16 19 66.3 20 -4.2 24.4
15:50 1023 30.21 852 25.16 19.1 66.5 21 -3.8 25.2
15:55 1023 30.21 852 25.16 19.3 66.8 21 -3.5 25.7
16:00 1023 30.21 852 25.16 18.6 65.5 21 -3.7 25.3
16:05 1023 30.21 852 25.16 18.1 64.5 22 -4 24.8
16:10 1023 30.21 852 25.16 18 64.3 22 -4 24.7
16:15 1023 30.21 852 25.16 18.5 65.2 21 -4.4 24.1
16:20 1023 30.21 852 25.16 19.3 66.7 20 -4.1 24.7
16:25 1023 30.21 852 25.16 19.4 66.9 20 -4.2 24.4
16:30 1023 30.21 852 25.16 18.3 65 20 -5.2 22.7
16:35 1022 30.18 852 25.16 17.1 62.7 22 -5 23.1
16:40 1022 30.18 852 25.16 17.3 63.1 21 -4.9 23.2
16:45 1022 30.18 852 25.16 17.3 63.1 23 -4.1 24.6
16:50 1022 30.18 852 25.16 16.7 62.1 23 -4.3 24.3
16:55 1022 30.18 852 25.16 16.9 62.4 20 -5.9 21.3
17:00 1022 30.18 852 25.16 16.7 62.1 20 -6.2 20.9
17:05 1022 30.18 851 25.13 16.7 62.1 20 -6.3 20.6
17:10 1022 30.18 851 25.13 17 62.6 19 -6.5 20.3
17:15 1022 30.18 851 25.13 16.8 62.2 19 -6.6 20.1
17:20 1022 30.18 851 25.13 17 62.5 20 -5.8 21.6
17:25 1022 30.18 851 25.13 17.6 63.7 18 -6.6 20.1
17:30 1022 30.18 851 25.13 17.7 63.8 20 -5.6 21.9
17:35 1022 30.18 851 25.13 17.7 63.8 20 -5.6 21.9
17:40 1022 30.18 851 25.13 17.5 63.6 19 -6.2 20.9
17:45 1022 30.18 851 25.13 17.9 64.1 20 -5.6 22
17:50 1022 30.18 851 25.13 17.9 64.3 19 -6 21.2
17:55 1022 30.18 851 25.13 18 64.4 18 -6.8 19.7
18:00 1022 30.18 851 25.13 18 64.4 17 -7.1 19.3
18:05 1022 30.18 851 25.13 17.4 63.3 19 -6.6 20.2
18:10 1022 30.18 851 25.13 17.3 63.2 18 -7 19.3
18:15 1022 30.18 851 25.13 17.3 63.2 19 -6.2 20.8
18:20 1022 30.18 851 25.13 17.4 63.2 20 -5.8 21.5
18:25 1022 30.18 851 25.13 17.2 62.9 20 -5.8 21.5
18:30 1022 30.18 851 25.13 17.2 62.9 19 -6.5 20.3
18:35 1022 30.18 851 25.13 17.2 62.9 20 -5.9 21.5
18:40 1022 30.18 851 25.13 16.9 62.4 21 -5.7 21.8
18:45 1022 30.18 851 25.13 16.6 61.8 21 -5.8 21.6
18:50 1022 30.18 851 25.13 16.4 61.6 22 -5.1 22.8
18:55 1022 30.18 851 25.13 16.4 61.4 24 -4 24.9
19:00 1022 30.18 851 25.13 16.3 61.3 23 -4.8 23.4
19:05 1022 30.18 851 25.13 16 60.8 30 -1.7 29
19:10 1022 30.18 851 25.13 15.3 59.6 26 -4 24.8
19:15 1022 30.18 851 25.13 14.3 57.8 31 -2.4 27.7
19:20 1022 30.18 851 25.13 13.7 56.7 34 -1.6 29
19:25 1022 30.18 851 25.13 13.5 56.3 33 -2.5 27.4
19:30 1022 30.18 851 25.13 13.5 56.4 34 -2.1 28.3
19:35 1022 30.18 851 25.13 13 55.4 39 -0.7 30.8
19:40 1022 30.18 851 25.13 11.8 53.3 45 0.3 32.6
19:45 1022 30.18 851 25.13 11.4 52.4 35 -3.4 25.8
19:50 1022 30.18 851 25.13 11.3 52.3 32 -4.7 23.5
19:55 1022 30.18 851 25.13 11.6 52.8 28 -6.4 20.5
20:00 1022 30.18 851 25.13 12 53.6 25 -7.4 18.7
20:05 1022 30.18 851 25.13 12.1 53.7 26 -6.8 19.7
20:10 1022 30.18 851 25.13 11.8 53.3 28 -5.9 21.3
20:15 1022 30.18 851 25.13 11.5 52.7 30 -5.6 22
20:20 1022 30.18 851 25.13 11.2 52.2 30 -5.6 22
20:25 1022 30.18 851 25.13 11.1 51.9 30 -5.7 21.8
20:30 1022 30.18 851 25.13 11 51.7 31 -5.6 22
20:35 1022 30.18 852 25.16 10.8 51.4 31 -5.6 22
20:40 1022 30.18 852 25.16 10.6 51 31 -5.7 21.8
20:45 1022 30.18 852 25.16 10.4 50.7 31 -5.8 21.5
20:50 1022 30.18 852 25.16 10.2 50.4 31 -6 21.2
20:55 1022 30.18 852 25.16 10.1 50.1 31 -6.2 20.9
21:00 1022 30.18 852 25.16 9.9 49.9 31 -6.2 20.8
21:05 1022 30.18 852 25.16 9.8 49.6 31 -6.3 20.6
21:10 1022 30.18 852 25.16 9.6 49.3 32 -6.4 20.5
21:15 1022 30.18 852 25.16 9.5 49.1 31 -6.6 20
21:20 1022 30.18 852 25.16 9.4 48.9 32 -6.6 20.1
21:25 1022 30.18 852 25.16 9.3 48.7 32 -6.7 19.9
21:30 1022 30.18 852 25.16 9.2 48.5 32 -6.9 19.6
21:35 1022 30.18 852 25.16 9 48.2 32 -7 19.5
21:40 1022 30.18 852 25.16 8.9 48 32 -7.1 19.3
21:45 1022 30.18 851 25.13 8.8 47.9 32 -7.1 19.2
21:50 1022 30.18 851 25.13 8.7 47.7 32 -7.2 19.1
21:55 1022 30.18 851 25.13 8.6 47.5 31 -7.4 18.7
22:00 1022 30.18 851 25.13 8.6 47.5 31 -7.5 18.5
22:05 1022 30.18 851 25.13 8.6 47.5 31 -7.6 18.3
22:10 1022 30.18 851 25.13 8.6 47.4 31 -7.8 18
22:15 1022 30.18 851 25.13 8.5 47.3 31 -7.8 17.9
22:20 1022 30.18 852 25.16 8.4 47.2 31 -7.9 17.8
22:25 1022 30.18 852 25.16 8.3 47 30 -8.1 17.4
22:30 1022 30.18 851 25.13 8.3 47 30 -8.2 17.3
22:35 1022 30.18 852 25.16 8.3 46.9 30 -8.2 17.3
22:40 1022 30.18 852 25.16 8.1 46.7 30 -8.2 17.2
22:45 1022 30.18 852 25.16 8.1 46.5 31 -8.2 17.2
22:50 1022 30.18 852 25.16 8 46.4 31 -8.3 17.1
22:55 1022 30.18 852 25.16 8 46.3 31 -8.3 17.1
23:00 1022 30.18 852 25.16 7.9 46.2 31 -8.3 17
23:05 1022 30.18 852 25.16 7.9 46.1 31 -8.3 17
23:10 1022 30.18 852 25.16 7.7 45.9 31 -8.3 17.1
23:15 1022 30.18 852 25.16 7.7 45.8 31 -8.4 16.9
23:20 1022 30.18 852 25.16 7.6 45.6 31 -8.4 16.9
23:25 1022 30.18 852 25.16 7.5 45.5 32 -8.3 17
23:30 1022 30.18 852 25.16 7.5 45.4 31 -8.4 16.9
23:35 1022 30.18 852 25.16 7.4 45.3 32 -8.3 17
23:40 1022 30.18 852 25.16 7.3 45.2 32 -8.4 17
23:45 1022 30.18 852 25.16 7.3 45.1 32 -8.3 17
23:50 1022 30.18 852 25.16 7.1 44.9 32 -8.4 16.9
23:55 1022 30.18 852 25.16 7.1 44.8 32 -8.5 16.7
24:00 1022 30.18 852 25.16 7.1 44.7 32 -8.7 16.3